New Orleans Nas Jrb/Alvin Callender Field/ Airport
KNBG : now visible

Airfield :











YOU CAN JOIN US ON...

 
LOGIN :

Register | Disclaimer

   EN    FR    IT 

 









Legend :    VFR   Marginal VFR   IFR   Intensive IFR   Very Intensive IFR
Visi :
Ceiling :
>= 8 km
>= 3000ft
5 to 8 km
1000 to 3000 ft
1500m to 5 km
500 to 1000 ft
800 to 1500m
200 to 500 ft
< 800m
< 200 ft
Symbols :   Thunderstorms  Fog  Heavy snow  Heavy precipitations  Wind > 20 kt






- Airport Elevation : 2 ft


KNBG - New Orleans Nas Jrb/Alvin Callender Field/

CURRENT METAR :
  • 280119Z 34005KT 10SM FEW002 27/14 A2991 RMK AO2 T02720139 $

EXPIRED METARs :
  • 280055Z 34007KT 10SM CLR 27/14 A2990 RMK AO2 SLP125 T02720139 $
  • 272355Z 34009KT 10SM CLR 29/14 A2989 RMK AO2 SLP121 T02940139 10311 20294 55004 $

TAF TAF KNBG
Valid from the 27 at 23:00 until the 28 at 23:00 UTC


2723/2823 28010G18KT 9999 SCT050 SCT250 QNH2987INS
BECMG 2800/2802 33006KT 9999 FEW050 QNH2989INS
BECMG 2815/2817 07006KT 9999 SCT040 QNH2984INS AUTOMATED SENSOR METWATCH 2804 TIL 2812 T18/2811Z T31/2819Z FN00253
KZHU FIR / North America



MET'MAP, your aeronautical weather chart ! - Copyright ORBIFLY December 2007 - Disclaimer

ORBIFLY MET'MAP TEAM :

Programming & Development : Alexandra Zaïnal
Original concept : Baudouin d'Aumeries
Technical & hardware support : Manuel Goepfert
Assistance : Marc-Olivier Méhu

Contact : metmap@orbifly.com




SOURCES & CREDITS :

   NOAA       Earth
Advisory